TimeCEST,TemperatureF,Dew PointF,Humidity,Sea Level PressureIn,VisibilityMPH,Wind Direction,Wind SpeedMPH,Gust SpeedMPH,PrecipitationIn,Events,Conditions,WindDirDegrees,DateUTC
12:00 AM,51.8,48.2,88,30.06,-9999.0,Variable,2.3,-,N/A,,Clear,0,2012-10-02 22:00:00
12:30 AM,51.8,48.2,88,30.06,-9999.0,NNW,2.3,-,N/A,,Clear,330,2012-10-02 22:30:00
1:00 AM,51.8,48.2,88,30.04,-9999.0,WNW,8.1,-,N/A,,Clear,300,2012-10-02 23:00:00
1:30 AM,50.0,48.2,94,30.04,-9999.0,WNW,5.8,-,N/A,,Clear,300,2012-10-02 23:30:00
2:00 AM,50,47,88,30.07,6,WNW,8.9,,,,Scattered Clouds,290,2012-10-03 00:00:00
2:00 AM,50.0,48.2,94,30.04,-9999.0,WNW,6.9,-,N/A,,Clear,300,2012-10-03 00:00:00
2:30 AM,50.0,46.4,87,30.04,-9999.0,WNW,8.1,-,N/A,,Clear,290,2012-10-03 00:30:00
3:00 AM,48.2,46.4,93,30.04,-9999.0,WNW,6.9,-,N/A,,Clear,290,2012-10-03 01:00:00
3:30 AM,48.2,46.4,93,30.04,-9999.0,Variable,2.3,-,N/A,,Clear,0,2012-10-03 01:30:00
4:00 AM,48.2,46.4,93,30.04,-9999.0,WNW,4.6,-,N/A,,Clear,300,2012-10-03 02:00:00
4:30 AM,48.2,44.6,87,30.04,-9999.0,WNW,5.8,-,N/A,,Clear,290,2012-10-03 02:30:00
5:00 AM,46.4,44.6,93,30.04,-9999.0,WNW,5.8,-,N/A,,Clear,290,2012-10-03 03:00:00
5:30 AM,46.4,44.6,93,30.04,-9999.0,West,5.8,-,N/A,,Clear,280,2012-10-03 03:30:00
6:00 AM,46.4,44.6,93,30.04,-9999.0,West,6.9,-,N/A,,Clear,270,2012-10-03 04:00:00
6:30 AM,46.4,44.6,93,30.04,-9999.0,West,4.6,-,N/A,,Clear,280,2012-10-03 04:30:00
7:00 AM,46.4,42.8,87,30.04,-9999.0,West,3.5,-,N/A,,Clear,280,2012-10-03 05:00:00
7:30 AM,46.4,42.8,87,30.04,-9999.0,West,8.1,-,N/A,,Clear,280,2012-10-03 05:30:00
8:00 AM,47,44,85,30.08,9,WNW,6.7,,,,Clear,290,2012-10-03 06:00:00
8:00 AM,46.4,42.8,87,30.04,-9999.0,West,8.1,-,N/A,,Clear,280,2012-10-03 06:00:00
8:30 AM,48.2,44.6,87,30.06,-9999.0,WNW,4.6,-,N/A,,Clear,290,2012-10-03 06:30:00
9:00 AM,51.8,44.6,76,30.06,-9999.0,WNW,5.8,-,N/A,,Clear,290,2012-10-03 07:00:00
9:30 AM,51.8,44.6,76,30.06,-9999.0,West,6.9,-,N/A,,Clear,280,2012-10-03 07:30:00
10:00 AM,55.4,44.6,67,30.06,-9999.0,WNW,8.1,-,N/A,,Clear,290,2012-10-03 08:00:00
10:30 AM,57.2,46.4,67,30.06,-9999.0,West,6.9,-,N/A,,Clear,280,2012-10-03 08:30:00
11:00 AM,60.8,46.4,59,30.06,-9999.0,West,6.9,-,N/A,,Clear,280,2012-10-03 09:00:00
11:30 AM,62.6,46.4,55,30.06,-9999.0,West,5.8,-,N/A,,Clear,280,2012-10-03 09:30:00
12:00 PM,64.4,44.6,49,30.06,-9999.0,WNW,4.6,-,N/A,,Clear,290,2012-10-03 10:00:00
12:30 PM,66.2,46.4,49,30.06,-9999.0,SW,5.8,-,N/A,,Clear,230,2012-10-03 10:30:00
1:00 PM,66.2,46.4,49,30.04,-9999.0,WSW,5.8,-,N/A,,Clear,240,2012-10-03 11:00:00
1:30 PM,68.0,46.4,46,30.04,-9999.0,Variable,3.5,-,N/A,,Clear,0,2012-10-03 11:30:00
2:00 PM,69,45,31,30.02,16,SSW,6.7,,,,Scattered Clouds,210,2012-10-03 12:00:00
2:00 PM,68.0,44.6,43,30.04,-9999.0,SW,4.6,-,N/A,,Clear,220,2012-10-03 12:00:00
2:30 PM,69.8,42.8,38,30.04,-9999.0,Variable,3.5,-,N/A,,Clear,0,2012-10-03 12:30:00
3:00 PM,71.6,41.0,33,30.01,-9999.0,WSW,9.2,-,N/A,,Clear,240,2012-10-03 13:00:00
3:30 PM,71.6,41.0,33,30.01,-9999.0,West,8.1,-,N/A,,Clear,260,2012-10-03 13:30:00
4:00 PM,71.6,42.8,35,30.01,-9999.0,WSW,6.9,-,N/A,,Clear,240,2012-10-03 14:00:00
4:30 PM,71.6,42.8,35,30.01,-9999.0,SW,8.1,-,N/A,,Clear,220,2012-10-03 14:30:00
5:00 PM,71.6,41.0,33,30.01,-9999.0,SSW,8.1,-,N/A,,Clear,210,2012-10-03 15:00:00
5:30 PM,69.8,41.0,35,30.01,-9999.0,SSW,6.9,-,N/A,,Clear,200,2012-10-03 15:30:00
6:00 PM,68.0,42.8,40,30.01,-9999.0,SW,6.9,-,N/A,,Clear,220,2012-10-03 16:00:00
6:30 PM,64.4,42.8,45,30.01,-9999.0,SSW,6.9,-,N/A,,Clear,210,2012-10-03 16:30:00
7:00 PM,64.4,42.8,45,30.01,-9999.0,South,4.6,-,N/A,,Clear,190,2012-10-03 17:00:00
7:30 PM,62.6,42.8,48,30.01,-9999.0,South,4.6,-,N/A,,Clear,180,2012-10-03 17:30:00
8:00 PM,60,42,40,30.02,19,SW,2.2,,,,Clear,220,2012-10-03 18:00:00
8:00 PM,60.8,42.8,52,30.01,-9999.0,SSW,3.5,-,N/A,,Clear,210,2012-10-03 18:00:00
8:30 PM,59.0,42.8,55,30.01,-9999.0,Variable,2.3,-,N/A,,Clear,0,2012-10-03 18:30:00
9:00 PM,60.8,44.6,55,30.04,-9999.0,NE,3.5,-,N/A,,Clear,40,2012-10-03 19:00:00
9:30 PM,59.0,44.6,59,30.04,-9999.0,NE,4.6,-,N/A,,Clear,50,2012-10-03 19:30:00
10:00 PM,59.0,44.6,59,30.04,-9999.0,NE,5.8,-,N/A,,Clear,50,2012-10-03 20:00:00
10:30 PM,57.2,44.6,63,30.01,-9999.0,NE,5.8,-,N/A,,Clear,50,2012-10-03 20:30:00
11:00 PM,55.4,44.6,67,30.01,-9999.0,NE,5.8,-,N/A,,Clear,40,2012-10-03 21:00:00
11:30 PM,55.4,44.6,67,30.04,-9999.0,NNE,5.8,-,N/A,,Clear,30,2012-10-03 21:30:00